Aviation Digital Data Service (ADDS)

Output produced by METARs form (1808 UTC 24 June 2019)
found at http://www.aviationweather.gov/metar/data/
 
METAR text: RPLL 241700Z 22006KT 9999 VCTS FEW020CB SCT090 BKN270 28/25 Q1010 NOSIG RMK A2983 VCTS N NW
Conditions at: RPLL (NINOY AQUINO INT, PH) observed 1700 UTC 24 June 2019
Temperature: 28.0°C (82°F)
Dewpoint: 25.0°C (77°F) [RH = 84%]
Pressure (altimeter): 29.82 inches Hg (1010.0 mb)
Winds: from the SW (220 degrees) at 7 MPH (6 knots; 3.1 m/s)
Visibility: 6 or more miles (10+ km)
Ceiling: 27000 feet AGL
Clouds: few clouds at 2000 feet AGL
scattered clouds at 9000 feet AGL
broken clouds at 27000 feet AGL
Weather: VCTS  (thunderstorm in vicinity)

METAR text: RPLL 241600Z 25004KT 9999 FEW022CB BKN090 29/25 Q1010 NOSIG RMK A2983 DSTNT LTG OCNL W N
Conditions at: RPLL (NINOY AQUINO INT, PH) observed 1600 UTC 24 June 2019
Temperature: 29.0°C (84°F)
Dewpoint: 25.0°C (77°F) [RH = 79%]
Pressure (altimeter): 29.82 inches Hg (1010.0 mb)
Winds: from the WSW (250 degrees) at 5 MPH (4 knots; 2.1 m/s)
Visibility: 6 or more miles (10+ km)
Ceiling: 9000 feet AGL
Clouds: few clouds at 2200 feet AGL
broken clouds at 9000 feet AGL
Weather: no significant weather observed at this time

METAR text: RPLL 241500Z 25004KT 9999 FEW022CB SCT025 29/25 Q1010 NOSIG RMK A2983 DSTNT LTG NNE
Conditions at: RPLL (NINOY AQUINO INT, PH) observed 1500 UTC 24 June 2019
Temperature: 29.0°C (84°F)
Dewpoint: 25.0°C (77°F) [RH = 79%]
Pressure (altimeter): 29.82 inches Hg (1010.0 mb)
Winds: from the WSW (250 degrees) at 5 MPH (4 knots; 2.1 m/s)
Visibility: 6 or more miles (10+ km)
Ceiling: at least 12,000 feet AGL
Clouds: few clouds at 2200 feet AGL
scattered clouds at 2500 feet AGL
Weather: no significant weather observed at this time

METAR text: RPLL 241400Z 23006KT 9999 FEW022 SCT100 29/25 Q1010 NOSIG RMK A2983
Conditions at: RPLL (NINOY AQUINO INT, PH) observed 1400 UTC 24 June 2019
Temperature: 29.0°C (84°F)
Dewpoint: 25.0°C (77°F) [RH = 79%]
Pressure (altimeter): 29.82 inches Hg (1010.0 mb)
Winds: from the SW (230 degrees) at 7 MPH (6 knots; 3.1 m/s)
Visibility: 6 or more miles (10+ km)
Ceiling: at least 12,000 feet AGL
Clouds: few clouds at 2200 feet AGL
scattered clouds at 10000 feet AGL
Weather: no significant weather observed at this time

METAR text: RPLL 241300Z 24007KT 9999 FEW022 30/25 Q1010 NOSIG RMK A2983
Conditions at: RPLL (NINOY AQUINO INT, PH) observed 1300 UTC 24 June 2019
Temperature: 30.0°C (86°F)
Dewpoint: 25.0°C (77°F) [RH = 75%]
Pressure (altimeter): 29.82 inches Hg (1010.0 mb)
Winds: from the WSW (240 degrees) at 8 MPH (7 knots; 3.6 m/s)
Visibility: 6 or more miles (10+ km)
Ceiling: at least 12,000 feet AGL
Clouds: few clouds at 2200 feet AGL
Weather: no significant weather observed at this time

METAR text: RPLL 241200Z 24008KT 9999 FEW022 30/26 Q1010 NOSIG RMK A2983
Conditions at: RPLL (NINOY AQUINO INT, PH) observed 1200 UTC 24 June 2019
Temperature: 30.0°C (86°F)
Dewpoint: 26.0°C (79°F) [RH = 79%]
Pressure (altimeter): 29.82 inches Hg (1010.0 mb)
Winds: from the WSW (240 degrees) at 9 MPH (8 knots; 4.1 m/s)
Visibility: 6 or more miles (10+ km)
Ceiling: at least 12,000 feet AGL
Clouds: few clouds at 2200 feet AGL
Weather: no significant weather observed at this time

METAR text: RPLL 241100Z 25012KT 9999 FEW020CB 30/26 Q1008 NOSIG RMK A2977 CB N/NE/SE
Conditions at: RPLL (NINOY AQUINO INT, PH) observed 1100 UTC 24 June 2019
Temperature: 30.0°C (86°F)
Dewpoint: 26.0°C (79°F) [RH = 79%]
Pressure (altimeter): 29.76 inches Hg (1008.0 mb)
Winds: from the WSW (250 degrees) at 14 MPH (12 knots; 6.2 m/s)
Visibility: 6 or more miles (10+ km)
Ceiling: at least 12,000 feet AGL
Clouds: few clouds at 2000 feet AGL
Weather: no significant weather observed at this time

METAR text: RPLL 241000Z 26014KT 9999 FEW022TCU BKN250 31/26 Q1008 NOSIG RMK A2977 TCU NE
Conditions at: RPLL (NINOY AQUINO INT, PH) observed 1000 UTC 24 June 2019
Temperature: 31.0°C (88°F)
Dewpoint: 26.0°C (79°F) [RH = 75%]
Pressure (altimeter): 29.76 inches Hg (1008.0 mb)
Winds: from the W (260 degrees) at 16 MPH (14 knots; 7.2 m/s)
Visibility: 6 or more miles (10+ km)
Ceiling: 25000 feet AGL
Clouds: few clouds at 2200 feet AGL
broken clouds at 25000 feet AGL
Weather: no significant weather observed at this time

METAR text: RPLL 240900Z 25012KT 9999 FEW023 BKN270 32/26 Q1007 NOSIG RMK A2974
Conditions at: RPLL (NINOY AQUINO INT, PH) observed 0900 UTC 24 June 2019
Temperature: 32.0°C (90°F)
Dewpoint: 26.0°C (79°F) [RH = 71%]
Pressure (altimeter): 29.73 inches Hg (1007.0 mb)
Winds: from the WSW (250 degrees) at 14 MPH (12 knots; 6.2 m/s)
Visibility: 6 or more miles (10+ km)
Ceiling: 27000 feet AGL
Clouds: few clouds at 2300 feet AGL
broken clouds at 27000 feet AGL
Weather: no significant weather observed at this time

METAR text: RPLL 240800Z 26010KT 9999 FEW023 BKN300 32/25 Q1007 NOSIG RMK A2974
Conditions at: RPLL (NINOY AQUINO INT, PH) observed 0800 UTC 24 June 2019
Temperature: 32.0°C (90°F)
Dewpoint: 25.0°C (77°F) [RH = 67%]
Pressure (altimeter): 29.73 inches Hg (1007.0 mb)
Winds: from the W (260 degrees) at 12 MPH (10 knots; 5.1 m/s)
Visibility: 6 or more miles (10+ km)
Ceiling: 30000 feet AGL
Clouds: few clouds at 2300 feet AGL
broken clouds at 30000 feet AGL
Weather: no significant weather observed at this time

METAR text: RPLL 240700Z 26010KT 9999 FEW023 BKN300 33/25 Q1007 NOSIG RMK A2974
Conditions at: RPLL (NINOY AQUINO INT, PH) observed 0700 UTC 24 June 2019
Temperature: 33.0°C (91°F)
Dewpoint: 25.0°C (77°F) [RH = 63%]
Pressure (altimeter): 29.73 inches Hg (1007.0 mb)
Winds: from the W (260 degrees) at 12 MPH (10 knots; 5.1 m/s)
Visibility: 6 or more miles (10+ km)
Ceiling: 30000 feet AGL
Clouds: few clouds at 2300 feet AGL
broken clouds at 30000 feet AGL
Weather: no significant weather observed at this time

METAR text: RPLL 240600Z 28008KT 9999 FEW023 SCT100 33/26 Q1008 NOSIG RMK A2977
Conditions at: RPLL (NINOY AQUINO INT, PH) observed 0600 UTC 24 June 2019
Temperature: 33.0°C (91°F)
Dewpoint: 26.0°C (79°F) [RH = 67%]
Pressure (altimeter): 29.76 inches Hg (1008.0 mb)
Winds: from the W (280 degrees) at 9 MPH (8 knots; 4.1 m/s)
Visibility: 6 or more miles (10+ km)
Ceiling: at least 12,000 feet AGL
Clouds: few clouds at 2300 feet AGL
scattered clouds at 10000 feet AGL
Weather: no significant weather observed at this time

METAR text: RPLL 240500Z 27012KT 9999 FEW022CB FEW023 SCT090 32/26 Q1009 RESHRA NOSIG RMK A2980 CB S-SSW
Conditions at: RPLL (NINOY AQUINO INT, PH) observed 0500 UTC 24 June 2019
Temperature: 32.0°C (90°F)
Dewpoint: 26.0°C (79°F) [RH = 71%]
Pressure (altimeter): 29.79 inches Hg (1009.0 mb)
Winds: from the W (270 degrees) at 14 MPH (12 knots; 6.2 m/s)
Visibility: 6 or more miles (10+ km)
Ceiling: at least 12,000 feet AGL
Clouds: few clouds at 2200 feet AGL
few clouds at 2300 feet AGL
scattered clouds at 9000 feet AGL
Weather: no significant weather observed at this time

METAR text: RPLL 240400Z 28012KT 9999 -SHRA FEW020CB SCT022 SCT090 33/26 Q1010 NOSIG RMK A2983 CB E-SSE
Conditions at: RPLL (NINOY AQUINO INT, PH) observed 0400 UTC 24 June 2019
Temperature: 33.0°C (91°F)
Dewpoint: 26.0°C (79°F) [RH = 67%]
Pressure (altimeter): 29.82 inches Hg (1010.0 mb)
Winds: from the W (280 degrees) at 14 MPH (12 knots; 6.2 m/s)
Visibility: 6 or more miles (10+ km)
Ceiling: at least 12,000 feet AGL
Clouds: few clouds at 2000 feet AGL
scattered clouds at 2200 feet AGL
scattered clouds at 9000 feet AGL
Weather: -SHRA  (light rain showers)

METAR text: RPLL 240300Z 29010KT 9999 FEW022CB SCT023 SCT090 32/26 Q1010 NOSIG RMK A2983 CB NW-NE
Conditions at: RPLL (NINOY AQUINO INT, PH) observed 0300 UTC 24 June 2019
Temperature: 32.0°C (90°F)
Dewpoint: 26.0°C (79°F) [RH = 71%]
Pressure (altimeter): 29.82 inches Hg (1010.0 mb)
Winds: from the WNW (290 degrees) at 12 MPH (10 knots; 5.1 m/s)
Visibility: 6 or more miles (10+ km)
Ceiling: at least 12,000 feet AGL
Clouds: few clouds at 2200 feet AGL
scattered clouds at 2300 feet AGL
scattered clouds at 9000 feet AGL
Weather: no significant weather observed at this time

METAR text: RPLL 240200Z 26004KT 9999 FEW022CB FEW023 SCT100 32/26 Q1010 NOSIG RMK A2983 CB NE
Conditions at: RPLL (NINOY AQUINO INT, PH) observed 0200 UTC 24 June 2019
Temperature: 32.0°C (90°F)
Dewpoint: 26.0°C (79°F) [RH = 71%]
Pressure (altimeter): 29.82 inches Hg (1010.0 mb)
Winds: from the W (260 degrees) at 5 MPH (4 knots; 2.1 m/s)
Visibility: 6 or more miles (10+ km)
Ceiling: at least 12,000 feet AGL
Clouds: few clouds at 2200 feet AGL
few clouds at 2300 feet AGL
scattered clouds at 10000 feet AGL
Weather: no significant weather observed at this time

METAR text: RPLL 240100Z 09008KT 9999 FEW022CB FEW023 SCT100 31/25 Q1011 NOSIG RMK A2985 CB NW
Conditions at: RPLL (NINOY AQUINO INT, PH) observed 0100 UTC 24 June 2019
Temperature: 31.0°C (88°F)
Dewpoint: 25.0°C (77°F) [RH = 71%]
Pressure (altimeter): 29.85 inches Hg (1011.0 mb)
Winds: from the E (90 degrees) at 9 MPH (8 knots; 4.1 m/s)
Visibility: 6 or more miles (10+ km)
Ceiling: at least 12,000 feet AGL
Clouds: few clouds at 2200 feet AGL
few clouds at 2300 feet AGL
scattered clouds at 10000 feet AGL
Weather: no significant weather observed at this time

METAR text: RPLL 240000Z 24002KT 9999 FEW023 BKN090 29/25 Q1011 NOSIG RMK A2985
Conditions at: RPLL (NINOY AQUINO INT, PH) observed 0000 UTC 24 June 2019
Temperature: 29.0°C (84°F)
Dewpoint: 25.0°C (77°F) [RH = 79%]
Pressure (altimeter): 29.85 inches Hg (1011.0 mb)
Winds: from the WSW (240 degrees) at 2 MPH (2 knots; 1.0 m/s)
Visibility: 6 or more miles (10+ km)
Ceiling: 9000 feet AGL
Clouds: few clouds at 2300 feet AGL
broken clouds at 9000 feet AGL
Weather: no significant weather observed at this time

METAR text: RPLL 232300Z 14002KT 9999 FEW023 BKN090 28/25 Q1010 NOSIG RMK A2983
Conditions at: RPLL (NINOY AQUINO INT, PH) observed 2300 UTC 23 June 2019
Temperature: 28.0°C (82°F)
Dewpoint: 25.0°C (77°F) [RH = 84%]
Pressure (altimeter): 29.82 inches Hg (1010.0 mb)
Winds: from the SE (140 degrees) at 2 MPH (2 knots; 1.0 m/s)
Visibility: 6 or more miles (10+ km)
Ceiling: 9000 feet AGL
Clouds: few clouds at 2300 feet AGL
broken clouds at 9000 feet AGL
Weather: no significant weather observed at this time

METAR text: RPLL 232200Z 00000KT 9999 FEW023 BKN090 26/25 Q1009 NOSIG RMK A2980
Conditions at: RPLL (NINOY AQUINO INT, PH) observed 2200 UTC 23 June 2019
Temperature: 26.0°C (79°F)
Dewpoint: 25.0°C (77°F) [RH = 94%]
Pressure (altimeter): 29.79 inches Hg (1009.0 mb)
Winds: calm
Visibility: 6 or more miles (10+ km)
Ceiling: 9000 feet AGL
Clouds: few clouds at 2300 feet AGL
broken clouds at 9000 feet AGL
Weather: no significant weather observed at this time

METAR text: RPLL 232100Z VRB02KT 9999 FEW025 BKN250 26/25 Q1009 NOSIG RMK A2980
Conditions at: RPLL (NINOY AQUINO INT, PH) observed 2100 UTC 23 June 2019
Temperature: 26.0°C (79°F)
Dewpoint: 25.0°C (77°F) [RH = 94%]
Pressure (altimeter): 29.79 inches Hg (1009.0 mb)
Winds: variable direction winds at 2 MPH (2 knots; 1.0 m/s)
Visibility: 6 or more miles (10+ km)
Ceiling: 25000 feet AGL
Clouds: few clouds at 2500 feet AGL
broken clouds at 25000 feet AGL
Weather: no significant weather observed at this time

METAR text: RPLL 232000Z VRB02KT 9999 FEW023 SCT250 26/25 Q1009 NOSIG RMK A2980
Conditions at: RPLL (NINOY AQUINO INT, PH) observed 2000 UTC 23 June 2019
Temperature: 26.0°C (79°F)
Dewpoint: 25.0°C (77°F) [RH = 94%]
Pressure (altimeter): 29.79 inches Hg (1009.0 mb)
Winds: variable direction winds at 2 MPH (2 knots; 1.0 m/s)
Visibility: 6 or more miles (10+ km)
Ceiling: at least 12,000 feet AGL
Clouds: few clouds at 2300 feet AGL
scattered clouds at 25000 feet AGL
Weather: no significant weather observed at this time

METAR text: RPLL 231900Z VRB02KT 9999 FEW023 26/24 Q1008 NOSIG RMK A2977
Conditions at: RPLL (NINOY AQUINO INT, PH) observed 1900 UTC 23 June 2019
Temperature: 26.0°C (79°F)
Dewpoint: 24.0°C (75°F) [RH = 89%]
Pressure (altimeter): 29.76 inches Hg (1008.0 mb)
Winds: variable direction winds at 2 MPH (2 knots; 1.0 m/s)
Visibility: 6 or more miles (10+ km)
Ceiling: at least 12,000 feet AGL
Clouds: few clouds at 2300 feet AGL
Weather: no significant weather observed at this time

METAR text: RPLL 231800Z 26003KT 9999 FEW023 BKN090 26/24 Q1008 RETSRA NOSIG RMK A2977
Conditions at: RPLL (NINOY AQUINO INT, PH) observed 1800 UTC 23 June 2019
Temperature: 26.0°C (79°F)
Dewpoint: 24.0°C (75°F) [RH = 89%]
Pressure (altimeter): 29.76 inches Hg (1008.0 mb)
Winds: from the W (260 degrees) at 3 MPH (3 knots; 1.5 m/s)
Visibility: 6 or more miles (10+ km)
Ceiling: 9000 feet AGL
Clouds: few clouds at 2300 feet AGL
broken clouds at 9000 feet AGL
Weather: no significant weather observed at this time

METAR text: RPLL 231720Z 26010KT 7000-TSRA FEW018CB SCT019 BKN080 26/24 Q1009 NOSIG RMK A2980 TS OHD W
Conditions at: RPLL (NINOY AQUINO INT, PH) observed 1720 UTC 23 June 2019
Temperature: 26.0°C (79°F)
Dewpoint: 24.0°C (75°F) [RH = 89%]
Pressure (altimeter): 29.79 inches Hg (1009.0 mb)
Winds: from the W (260 degrees) at 12 MPH (10 knots; 5.1 m/s)
Visibility: missing
Ceiling: 8000 feet AGL
Clouds: few clouds at 1800 feet AGL
scattered clouds at 1900 feet AGL
broken clouds at 8000 feet AGL
Weather: -TSRA  (light rain associated with thunderstorm(s))

METAR text: RPLL 231700Z 25010KT 1500 +TSRA FEW018CB BKN019 OVC070 24/23 Q1009 TEMPO 8000 -TSRA RMK A2980 TS OHD, W
Conditions at: RPLL (NINOY AQUINO INT, PH) observed 1700 UTC 23 June 2019
Temperature: 24.0°C (75°F)
Dewpoint: 23.0°C (73°F) [RH = 94%]
Pressure (altimeter): 29.79 inches Hg (1009.0 mb)
Winds: from the WSW (250 degrees) at 12 MPH (10 knots; 5.1 m/s)
Visibility: 0.93 miles (1.50 km)
Ceiling: 1900 feet AGL
Clouds: few clouds at 1800 feet AGL
broken clouds at 1900 feet AGL
overcast cloud deck at 7000 feet AGL
Weather: +TSRA  (heavy rain associated with thunderstorm(s))

METAR text: RPLL 231622Z VRB14KT 0800 +TSRA FEW018CB BKN019 OVC080 24/24 Q1010 TEMPO 7000 TSRA RMK A2983 TS OHD
Conditions at: RPLL (NINOY AQUINO INT, PH) observed 1622 UTC 23 June 2019
Temperature: 24.0°C (75°F)
Dewpoint: 24.0°C (75°F) [RH = 100%]
Pressure (altimeter): 29.82 inches Hg (1010.0 mb)
Winds: variable direction winds at 16 MPH (14 knots; 7.2 m/s)
Visibility: 0.50 miles (0.80 km)
Ceiling: 1900 feet AGL
Clouds: few clouds at 1800 feet AGL
broken clouds at 1900 feet AGL
overcast cloud deck at 8000 feet AGL
Weather: +TSRA  (heavy rain associated with thunderstorm(s))

METAR text: RPLL 231600Z VRB09KT 7000 TSRA FEW018CB BKN019 OVC080 25/24 Q1010 NOSIG RMK A2983 TS OHD
Conditions at: RPLL (NINOY AQUINO INT, PH) observed 1600 UTC 23 June 2019
Temperature: 25.0°C (77°F)
Dewpoint: 24.0°C (75°F) [RH = 94%]
Pressure (altimeter): 29.82 inches Hg (1010.0 mb)
Winds: variable direction winds at 10 MPH (9 knots; 4.6 m/s)
Visibility: 4 miles ( 7 km)
Ceiling: 1900 feet AGL
Clouds: few clouds at 1800 feet AGL
broken clouds at 1900 feet AGL
overcast cloud deck at 8000 feet AGL
Weather: TSRA  (rain associated with thunderstorm(s))

METAR text: RPLL 231518Z VRB10KT 9999 -TSRA BKN018 FEW020CB 27/24 Q1010 TEMPO 7000 TSRA RMK A2983 CB OVHD N
Conditions at: RPLL (NINOY AQUINO INT, PH) observed 1518 UTC 23 June 2019
Temperature: 27.0°C (81°F)
Dewpoint: 24.0°C (75°F) [RH = 84%]
Pressure (altimeter): 29.82 inches Hg (1010.0 mb)
Winds: variable direction winds at 12 MPH (10 knots; 5.1 m/s)
Visibility: 6 or more miles (10+ km)
Ceiling: 1800 feet AGL
Clouds: broken clouds at 1800 feet AGL
few clouds at 2000 feet AGL
Weather: -TSRA  (light rain associated with thunderstorm(s))

METAR text: RPLL 231500Z 24006KT 9999 TS VCSH FEW018 SCT020CB 30/26 Q1010 RMK A2983 CB OHD N,NE VCSH N, NE
Conditions at: RPLL (NINOY AQUINO INT, PH) observed 1500 UTC 23 June 2019
Temperature: 30.0°C (86°F)
Dewpoint: 26.0°C (79°F) [RH = 79%]
Pressure (altimeter): 29.82 inches Hg (1010.0 mb)
Winds: from the WSW (240 degrees) at 7 MPH (6 knots; 3.1 m/s)
Visibility: 6 or more miles (10+ km)
Ceiling: at least 12,000 feet AGL
Clouds: few clouds at 1800 feet AGL
scattered clouds at 2000 feet AGL
Weather: TS VCSH  (thunderstorm, showers in vicinity)

METAR text: RPLL 231400Z 23006KT 9999 FEW020 FEW022CB SCT300 30/26 Q1009 NOSIG RMK A2980 CB/LTG OCNL N
Conditions at: RPLL (NINOY AQUINO INT, PH) observed 1400 UTC 23 June 2019
Temperature: 30.0°C (86°F)
Dewpoint: 26.0°C (79°F) [RH = 79%]
Pressure (altimeter): 29.79 inches Hg (1009.0 mb)
Winds: from the SW (230 degrees) at 7 MPH (6 knots; 3.1 m/s)
Visibility: 6 or more miles (10+ km)
Ceiling: at least 12,000 feet AGL
Clouds: few clouds at 2000 feet AGL
few clouds at 2200 feet AGL
scattered clouds at 30000 feet AGL
Weather: no significant weather observed at this time

METAR text: RPLL 231300Z 23008KT 9999 FEW020 FEW022CB 31/26 Q1009 NOSIG RMK A2980 CB/LTG OCNL N-NNE
Conditions at: RPLL (NINOY AQUINO INT, PH) observed 1300 UTC 23 June 2019
Temperature: 31.0°C (88°F)
Dewpoint: 26.0°C (79°F) [RH = 75%]
Pressure (altimeter): 29.79 inches Hg (1009.0 mb)
Winds: from the SW (230 degrees) at 9 MPH (8 knots; 4.1 m/s)
Visibility: 6 or more miles (10+ km)
Ceiling: at least 12,000 feet AGL
Clouds: few clouds at 2000 feet AGL
few clouds at 2200 feet AGL
Weather: no significant weather observed at this time

METAR text: RPLL 231200Z 23010KT 9999 FEW020 FEW022CB SCT100 31/26 Q1008 NOSIG RMK A2977 CB/LTG OCNL NNE
Conditions at: RPLL (NINOY AQUINO INT, PH) observed 1200 UTC 23 June 2019
Temperature: 31.0°C (88°F)
Dewpoint: 26.0°C (79°F) [RH = 75%]
Pressure (altimeter): 29.76 inches Hg (1008.0 mb)
Winds: from the SW (230 degrees) at 12 MPH (10 knots; 5.1 m/s)
Visibility: 6 or more miles (10+ km)
Ceiling: at least 12,000 feet AGL
Clouds: few clouds at 2000 feet AGL
few clouds at 2200 feet AGL
scattered clouds at 10000 feet AGL
Weather: no significant weather observed at this time

METAR text: RPLL 231100Z 24012KT 9999 FEW020 FEW022CB 31/26 Q1008 NOSIG RMK A2977 CB/LTG OCNL NNE
Conditions at: RPLL (NINOY AQUINO INT, PH) observed 1100 UTC 23 June 2019
Temperature: 31.0°C (88°F)
Dewpoint: 26.0°C (79°F) [RH = 75%]
Pressure (altimeter): 29.76 inches Hg (1008.0 mb)
Winds: from the WSW (240 degrees) at 14 MPH (12 knots; 6.2 m/s)
Visibility: 6 or more miles (10+ km)
Ceiling: at least 12,000 feet AGL
Clouds: few clouds at 2000 feet AGL
few clouds at 2200 feet AGL
Weather: no significant weather observed at this time

METAR text: RPLL 231000Z 25014KT 9999 FEW023 SCT100 OVC250 32/26 Q1007 NOSIG RMK A2974
Conditions at: RPLL (NINOY AQUINO INT, PH) observed 1000 UTC 23 June 2019
Temperature: 32.0°C (90°F)
Dewpoint: 26.0°C (79°F) [RH = 71%]
Pressure (altimeter): 29.73 inches Hg (1007.0 mb)
Winds: from the WSW (250 degrees) at 16 MPH (14 knots; 7.2 m/s)
Visibility: 6 or more miles (10+ km)
Ceiling: 25000 feet AGL
Clouds: few clouds at 2300 feet AGL
scattered clouds at 10000 feet AGL
overcast cloud deck at 25000 feet AGL
Weather: no significant weather observed at this time

METAR text: RPLL 230900Z 25016KT 9999 FEW023 SCT100 BKN250 32/26 Q1007 NOSIG RMK A2971
Conditions at: RPLL (NINOY AQUINO INT, PH) observed 0900 UTC 23 June 2019
Temperature: 32.0°C (90°F)
Dewpoint: 26.0°C (79°F) [RH = 71%]
Pressure (altimeter): 29.73 inches Hg (1007.0 mb)
Winds: from the WSW (250 degrees) at 18 MPH (16 knots; 8.2 m/s)
Visibility: 6 or more miles (10+ km)
Ceiling: 25000 feet AGL
Clouds: few clouds at 2300 feet AGL
scattered clouds at 10000 feet AGL
broken clouds at 25000 feet AGL
Weather: no significant weather observed at this time

METAR text: RPLL 230800Z 25015KT 9999 FEW022CB BKN270 33/26 Q1006 NOSIG RMK A2971 CB NNE/ESE
Conditions at: RPLL (NINOY AQUINO INT, PH) observed 0800 UTC 23 June 2019
Temperature: 33.0°C (91°F)
Dewpoint: 26.0°C (79°F) [RH = 67%]
Pressure (altimeter): 29.70 inches Hg (1006.0 mb)
Winds: from the WSW (250 degrees) at 17 MPH (15 knots; 7.7 m/s)
Visibility: 6 or more miles (10+ km)
Ceiling: 27000 feet AGL
Clouds: few clouds at 2200 feet AGL
broken clouds at 27000 feet AGL
Weather: no significant weather observed at this time

METAR text: RPLL 230700Z 25012KT 9999 FEW023 33/25 Q1006 NOSIG RMK A2971
Conditions at: RPLL (NINOY AQUINO INT, PH) observed 0700 UTC 23 June 2019
Temperature: 33.0°C (91°F)
Dewpoint: 25.0°C (77°F) [RH = 63%]
Pressure (altimeter): 29.70 inches Hg (1006.0 mb)
Winds: from the WSW (250 degrees) at 14 MPH (12 knots; 6.2 m/s)
Visibility: 6 or more miles (10+ km)
Ceiling: at least 12,000 feet AGL
Clouds: few clouds at 2300 feet AGL
Weather: no significant weather observed at this time

Forecast for: RPLL (NINOY AQUINO INT, PH)
Text: TAF RPLL 241700Z 2418/2524 26008KT 9999 FEW023 SCT100 TX35/2506Z TN28/2422Z
Forecast period: 1800 UTC 24 June 2019 to 0000 UTC 26 June 2019
Forecast type: FROM: standard forecast or significant change
Winds: from the W (260 degrees) at 9 MPH (8 knots; 4.1 m/s)
Visibility: 6 or more miles 10+ km)
Ceiling: at least 12,000 feet AGL
Clouds: few clouds at 2300 feet AGL
scattered clouds at 10000 feet AGL
Weather: no significant weather forecast for this period
Text: TEMPO 2418/2424 29006KT FEW022CB SCT023 BKN100
Forecast period: 1800 UTC 24 June 2019 to 0000 UTC 25 June 2019
Forecast type: TEMPORARY: The following changes expected for less than half the time period
Winds: from the WNW (290 degrees) at 7 MPH (6 knots; 3.1 m/s)
Visibility: missing
Ceiling: 10000 feet AGL
Clouds: few clouds at 2200 feet AGL
scattered clouds at 2300 feet AGL
broken clouds at 10000 feet AGL
Weather: no significant weather forecast for this period
Text: TEMPO 2500/2506 24011KT FEW022CB SCT023 SCT090
Forecast period: 0000 to 0600 UTC 25 June 2019
Forecast type: TEMPORARY: The following changes expected for less than half the time period
Winds: from the WSW (240 degrees) at 13 MPH (11 knots; 5.7 m/s)
Visibility: missing
Ceiling: at least 12,000 feet AGL
Clouds: few clouds at 2200 feet AGL
scattered clouds at 2300 feet AGL
scattered clouds at 9000 feet AGL
Weather: no significant weather forecast for this period